createdAt,value
2017-10-02T00:00:09.733Z,2.60
2017-10-02T00:02:38.073Z,3.17
2017-10-02T00:05:06.471Z,3.00
2017-10-02T00:07:34.059Z,2.70
2017-10-02T00:10:01.650Z,2.93
2017-10-02T00:12:29.206Z,2.90
2017-10-02T00:14:56.772Z,2.43
2017-10-02T00:17:24.350Z,2.67
2017-10-02T00:19:51.921Z,2.70
2017-10-02T00:22:20.278Z,3.10
2017-10-02T00:24:47.829Z,3.70
2017-10-02T00:27:15.397Z,3.03
2017-10-02T00:29:42.975Z,3.17
2017-10-02T00:32:11.323Z,2.70
2017-10-02T00:34:38.900Z,3.03
2017-10-02T00:37:06.483Z,2.80
2017-10-02T00:39:34.826Z,3.20
2017-10-02T00:42:02.406Z,3.27
2017-10-02T00:44:29.970Z,2.63
2017-10-02T00:46:57.541Z,3.03
2017-10-02T00:49:25.894Z,3.00
2017-10-02T00:51:53.466Z,2.50
2017-10-02T00:54:21.095Z,3.40
2017-10-02T00:56:48.661Z,2.80
2017-10-02T00:59:16.218Z,2.70
2017-10-02T01:01:43.810Z,3.00
2017-10-02T01:04:11.367Z,3.27
2017-10-02T01:06:38.984Z,3.30
2017-10-02T01:09:06.582Z,2.70
2017-10-02T01:11:34.150Z,2.83
2017-10-02T01:14:01.759Z,2.50
2017-10-02T01:16:29.330Z,3.33
2017-10-02T01:18:56.917Z,2.83
2017-10-02T01:21:24.755Z,2.53
2017-10-02T01:23:52.365Z,2.90
2017-10-02T01:26:19.956Z,2.60
2017-10-02T01:28:47.545Z,2.60
2017-10-02T01:31:15.111Z,3.00
2017-10-02T01:33:42.691Z,2.97
2017-10-02T01:36:10.286Z,3.00
2017-10-02T01:38:38.621Z,2.90
2017-10-02T01:41:06.213Z,3.53
2017-10-02T01:43:33.775Z,2.43
2017-10-02T01:46:01.354Z,3.20
2017-10-02T01:48:29.693Z,2.50
2017-10-02T01:50:57.261Z,3.03
2017-10-02T01:53:24.849Z,2.47
2017-10-02T01:55:53.174Z,3.20
2017-10-02T01:58:20.773Z,2.57
2017-10-02T02:00:48.406Z,2.90
2017-10-02T02:03:15.962Z,2.77
2017-10-02T02:05:43.657Z,2.60
2017-10-02T02:08:11.224Z,3.13
2017-10-02T02:10:38.797Z,3.13
2017-10-02T02:13:07.161Z,2.70
2017-10-02T02:15:34.718Z,2.57
2017-10-02T02:18:02.290Z,3.10
2017-10-02T02:20:30.454Z,2.77
2017-10-02T02:22:58.043Z,2.93
2017-10-02T02:25:26.370Z,2.50
2017-10-02T02:27:53.974Z,2.20
2017-10-02T02:30:22.324Z,2.63
2017-10-02T02:32:49.898Z,2.90
2017-10-02T02:35:17.747Z,2.57
2017-10-02T02:37:45.322Z,3.00
2017-10-02T02:40:12.886Z,2.60
2017-10-02T02:42:40.482Z,2.67
2017-10-02T02:45:08.060Z,3.17
2017-10-02T02:47:35.650Z,2.37
2017-10-02T02:50:03.270Z,3.00
2017-10-02T02:52:30.858Z,2.90
2017-10-02T02:54:58.422Z,2.70
2017-10-02T02:57:26.017Z,2.80
2017-10-02T02:59:53.595Z,2.50
2017-10-02T03:02:21.946Z,3.47
2017-10-02T03:04:49.519Z,2.80
2017-10-02T03:07:17.115Z,2.43
2017-10-02T03:09:44.698Z,2.77
2017-10-02T03:12:12.263Z,2.43
2017-10-02T03:14:39.855Z,2.50
2017-10-02T03:17:07.446Z,2.40
2017-10-02T03:19:35.772Z,2.93
2017-10-02T03:22:03.346Z,2.53
2017-10-02T03:24:30.965Z,2.90
2017-10-02T03:26:58.543Z,2.83
2017-10-02T03:29:26.130Z,3.20
2017-10-02T03:31:54.164Z,2.50
2017-10-02T03:34:21.988Z,2.83
2017-10-02T03:36:49.545Z,3.20
2017-10-02T03:39:17.150Z,2.67
2017-10-02T03:41:44.726Z,3.17
2017-10-02T03:44:12.313Z,2.60
2017-10-02T03:46:39.879Z,2.87
2017-10-02T03:49:07.469Z,2.30
2017-10-02T03:51:35.795Z,2.60
2017-10-02T03:54:03.345Z,2.63
2017-10-02T03:56:30.919Z,2.90
2017-10-02T03:58:58.489Z,2.40
2017-10-02T04:01:26.061Z,2.97
2017-10-02T04:03:53.614Z,2.63
2017-10-02T04:06:21.345Z,2.30
2017-10-02T04:08:48.917Z,2.60
2017-10-02T04:11:16.542Z,2.67
2017-10-02T04:13:44.873Z,3.03
2017-10-02T04:16:12.454Z,2.53
2017-10-02T04:18:40.039Z,2.97
2017-10-02T04:21:08.379Z,2.47
2017-10-02T04:23:35.959Z,2.40
2017-10-02T04:26:03.532Z,2.67
2017-10-02T04:28:31.845Z,3.07
2017-10-02T04:30:59.438Z,2.70
2017-10-02T04:33:27.137Z,2.83
2017-10-02T04:35:55.686Z,2.70
2017-10-02T04:38:23.254Z,2.57
2017-10-02T04:40:50.905Z,3.43
2017-10-02T04:43:18.481Z,2.80
2017-10-02T04:45:46.049Z,2.47
2017-10-02T04:48:13.610Z,2.70
2017-10-02T04:50:41.197Z,2.80
2017-10-02T04:53:09.526Z,2.87
2017-10-02T04:55:37.133Z,2.90
2017-10-02T04:58:05.476Z,3.10
2017-10-02T05:00:33.317Z,2.80
2017-10-02T05:03:00.893Z,2.50
2017-10-02T05:05:28.462Z,2.73
2017-10-02T05:07:56.217Z,2.93
2017-10-02T05:10:23.786Z,2.70
2017-10-02T05:12:51.395Z,2.63
2017-10-02T05:15:19.706Z,2.63
2017-10-02T05:17:47.279Z,2.30
2017-10-02T05:20:14.881Z,2.70
2017-10-02T05:22:43.222Z,2.23
2017-10-02T05:25:10.834Z,2.33
2017-10-02T05:27:39.161Z,2.77
2017-10-02T05:30:06.742Z,2.70
2017-10-02T05:32:34.420Z,1.90
2017-10-02T05:35:01.986Z,2.60
2017-10-02T05:37:30.325Z,2.07
2017-10-02T05:39:57.892Z,2.30
2017-10-02T05:42:25.478Z,2.50
2017-10-02T05:44:53.038Z,2.50
2017-10-02T05:47:20.608Z,2.57
2017-10-02T05:49:48.953Z,2.20
2017-10-02T05:52:16.534Z,2.13
2017-10-02T05:54:44.145Z,2.00
2017-10-02T05:57:11.857Z,2.67
2017-10-02T05:59:39.434Z,2.80
2017-10-02T06:02:07.778Z,2.47
2017-10-02T06:04:35.364Z,2.37
2017-10-02T06:07:02.982Z,2.33
2017-10-02T06:09:30.780Z,2.27
2017-10-02T06:11:58.347Z,2.53
2017-10-02T06:14:25.913Z,2.27
2017-10-02T06:16:53.476Z,2.23
2017-10-02T06:19:21.082Z,2.03
2017-10-02T06:21:48.646Z,2.57
2017-10-02T06:24:16.204Z,2.63
2017-10-02T06:26:44.591Z,2.00
2017-10-02T06:29:12.163Z,2.30
2017-10-02T06:31:39.747Z,2.70
2017-10-02T06:34:07.331Z,2.60
2017-10-02T06:36:35.670Z,2.00
2017-10-02T06:39:03.238Z,2.40
2017-10-02T06:41:30.822Z,2.37
2017-10-02T06:43:58.411Z,2.80
2017-10-02T06:46:25.974Z,2.50
2017-10-02T06:48:54.327Z,2.30
2017-10-02T06:51:22.647Z,2.40
2017-10-02T07:06:50.247Z,3.23
2017-10-02T07:09:17.830Z,2.40
2017-10-02T07:11:45.449Z,2.10
2017-10-02T07:14:13.019Z,2.87
2017-10-02T07:16:40.574Z,2.60
2017-10-02T07:19:08.169Z,2.80
2017-10-02T07:21:36.520Z,2.80
2017-10-02T07:24:04.080Z,3.60
2017-10-02T07:26:31.662Z,3.10
2017-10-02T07:28:59.998Z,2.80
2017-10-02T07:31:27.596Z,3.10
2017-10-02T07:33:55.173Z,3.60
2017-10-02T07:36:23.518Z,3.40
2017-10-02T07:38:51.095Z,3.67
2017-10-02T07:41:18.672Z,4.40
2017-10-02T07:43:47.057Z,3.83
2017-10-02T07:46:15.365Z,3.80
2017-10-02T07:48:42.930Z,3.90
2017-10-02T07:51:10.521Z,4.00
2017-10-02T07:53:39.031Z,3.80
2017-10-02T07:56:06.611Z,4.07
2017-10-02T07:58:34.945Z,4.80
2017-10-02T08:01:02.526Z,4.47
2017-10-02T08:03:30.343Z,4.87
2017-10-02T08:05:57.943Z,4.63
2017-10-02T08:08:25.521Z,4.40
2017-10-02T08:10:53.844Z,4.90
2017-10-02T08:13:21.645Z,5.10
2017-10-02T08:15:49.303Z,4.37
2017-10-02T08:18:16.856Z,5.60
2017-10-02T08:20:44.456Z,4.87
2017-10-02T08:23:12.799Z,4.40
2017-10-02T08:25:40.368Z,4.60
2017-10-02T08:28:07.933Z,4.90
2017-10-02T08:30:35.502Z,5.17
2017-10-02T08:33:03.070Z,4.40
2017-10-02T08:35:31.413Z,4.70
2017-10-02T08:37:58.977Z,4.50
2017-10-02T08:40:26.606Z,5.57
2017-10-02T08:42:55.017Z,5.07
2017-10-02T08:45:22.594Z,4.53
2017-10-02T08:47:50.189Z,5.17
2017-10-02T08:50:17.761Z,4.80
2017-10-02T08:52:45.337Z,4.67
2017-10-02T08:55:12.927Z,3.97
2017-10-02T08:57:40.499Z,4.70
2017-10-02T09:00:08.091Z,4.73
2017-10-02T09:02:36.437Z,5.47
2017-10-02T09:05:04.014Z,5.27
2017-10-02T09:07:32.359Z,5.03
2017-10-02T09:10:00.689Z,4.47
2017-10-02T09:12:29.048Z,5.10
2017-10-02T09:14:56.616Z,5.10
2017-10-02T09:17:24.962Z,5.60
2017-10-02T09:19:52.546Z,6.00
2017-10-02T09:22:20.105Z,5.10
2017-10-02T09:24:47.689Z,5.30
2017-10-02T09:27:16.018Z,5.77
2017-10-02T09:29:43.614Z,5.13
2017-10-02T09:32:11.234Z,5.63
2017-10-02T09:34:38.995Z,5.67
2017-10-02T09:37:06.650Z,5.97
2017-10-02T09:39:34.207Z,6.20
2017-10-02T09:42:01.798Z,5.30
2017-10-02T09:44:29.448Z,5.80
2017-10-02T09:46:57.042Z,6.17
2017-10-02T09:49:24.626Z,6.13
2017-10-02T09:51:52.946Z,5.53
2017-10-02T09:54:20.585Z,5.90
2017-10-02T09:56:48.159Z,5.20
2017-10-02T09:59:15.748Z,5.43
2017-10-02T10:01:43.343Z,4.40
2017-10-02T10:04:11.709Z,4.80
2017-10-02T10:06:39.284Z,5.03
2017-10-02T10:09:07.603Z,5.03
2017-10-02T10:11:35.285Z,5.10
2017-10-02T10:14:02.871Z,4.90
2017-10-02T10:16:30.450Z,5.40
2017-10-02T10:18:58.780Z,6.17
2017-10-02T10:21:26.362Z,5.20
2017-10-02T10:23:53.932Z,5.50
2017-10-02T10:26:21.541Z,5.43
2017-10-02T10:28:49.106Z,5.60
2017-10-02T10:31:16.723Z,5.20
2017-10-02T10:33:45.077Z,6.10
2017-10-02T10:36:12.660Z,5.70
2017-10-02T10:38:41.139Z,6.10
2017-10-02T10:41:08.718Z,6.00
2017-10-02T10:43:37.071Z,6.03
2017-10-02T10:46:04.665Z,6.17
2017-10-02T10:48:33.029Z,5.60
2017-10-02T10:51:00.628Z,5.93
2017-10-02T10:53:28.212Z,5.80
2017-10-02T10:55:55.817Z,5.53
2017-10-02T10:58:24.165Z,5.23
2017-10-02T11:00:52.111Z,4.57
2017-10-02T11:03:19.693Z,4.70
2017-10-02T11:05:47.266Z,5.23
2017-10-02T11:08:14.854Z,5.37
2017-10-02T11:10:43.226Z,4.83
2017-10-02T11:13:10.795Z,4.53
2017-10-02T11:15:39.134Z,4.53
2017-10-02T11:18:06.709Z,4.53
2017-10-02T11:20:34.301Z,4.57
2017-10-02T11:23:02.654Z,4.77
2017-10-02T11:25:30.214Z,5.10
2017-10-02T11:27:58.619Z,5.17
2017-10-02T11:30:26.979Z,5.20
2017-10-02T11:32:54.547Z,4.83
2017-10-02T11:35:22.952Z,4.07
2017-10-02T11:37:50.553Z,4.43
2017-10-02T11:40:18.141Z,5.13
2017-10-02T11:42:45.750Z,3.90
2017-10-02T11:45:13.338Z,4.30
2017-10-02T11:47:40.934Z,4.80
2017-10-02T11:50:09.389Z,4.10
2017-10-02T11:52:36.986Z,4.23
2017-10-02T11:55:05.614Z,4.80
2017-10-02T11:57:33.217Z,4.07
2017-10-02T12:00:00.810Z,4.07
2017-10-02T12:02:28.442Z,4.30
2017-10-02T12:04:56.023Z,3.90
2017-10-02T12:07:24.362Z,4.27
2017-10-02T12:09:51.961Z,4.50
2017-10-02T12:12:20.293Z,4.57
2017-10-02T12:14:47.894Z,4.50
2017-10-02T12:17:16.250Z,5.00
2017-10-02T12:19:43.827Z,4.20
2017-10-02T12:22:12.176Z,4.50
2017-10-02T12:24:39.814Z,4.87
2017-10-02T12:27:08.165Z,4.70
2017-10-02T12:29:35.758Z,5.27
2017-10-02T12:32:03.350Z,4.73
2017-10-02T12:34:30.937Z,4.73
2017-10-02T12:36:59.306Z,5.33
2017-10-02T12:39:27.483Z,4.70
2017-10-02T12:41:55.914Z,4.23
2017-10-02T12:44:23.559Z,4.70
2017-10-02T12:46:51.643Z,4.80
2017-10-02T12:49:19.258Z,4.67
2017-10-02T12:51:46.837Z,4.87
2017-10-02T12:54:15.182Z,4.47
2017-10-02T12:56:42.746Z,5.60
2017-10-02T12:59:10.417Z,5.23
2017-10-02T13:01:38.037Z,5.70
2017-10-02T13:04:05.617Z,5.33
2017-10-02T13:06:33.205Z,5.70
2017-10-02T13:09:00.774Z,5.83
2017-10-02T13:11:29.109Z,5.73
2017-10-02T13:13:56.707Z,5.93
2017-10-02T13:16:24.281Z,6.00
2017-10-02T13:18:52.734Z,5.80
2017-10-02T13:21:20.296Z,5.77
2017-10-02T13:23:47.849Z,5.90
2017-10-02T13:26:15.440Z,5.57
2017-10-02T13:28:43.795Z,7.47
2017-10-02T13:31:11.383Z,5.70
2017-10-02T13:33:39.744Z,6.87
2017-10-02T13:36:07.404Z,5.87
2017-10-02T13:38:35.235Z,5.70
2017-10-02T13:41:02.855Z,5.37
2017-10-02T13:43:31.202Z,6.23
2017-10-02T13:45:58.795Z,6.83
2017-10-02T13:48:27.227Z,5.27
2017-10-02T13:50:54.834Z,5.60
2017-10-02T13:53:23.187Z,6.47
2017-10-02T13:55:50.802Z,5.50
2017-10-02T13:58:18.807Z,5.20
2017-10-02T14:00:46.366Z,4.70
2017-10-02T14:03:14.747Z,7.03
2017-10-02T14:05:42.310Z,5.77
2017-10-02T14:08:09.922Z,5.73
2017-10-02T14:10:37.539Z,5.40
2017-10-02T14:13:05.169Z,5.80
2017-10-02T14:15:32.756Z,5.60
2017-10-02T14:18:00.353Z,6.50
2017-10-02T14:20:28.705Z,5.90
2017-10-02T14:22:56.280Z,6.70
2017-10-02T14:25:24.047Z,6.80
2017-10-02T14:27:51.661Z,5.90
2017-10-02T14:30:20.086Z,5.60
2017-10-02T14:32:47.660Z,5.23
2017-10-02T14:35:16.225Z,5.90
2017-10-02T14:37:44.051Z,6.73
2017-10-02T14:40:11.654Z,5.90
2017-10-02T14:42:39.250Z,5.00
2017-10-02T14:45:07.601Z,6.70
2017-10-02T14:47:35.218Z,6.93
2017-10-02T14:50:02.804Z,5.37
2017-10-02T14:52:30.410Z,5.50
2017-10-02T14:54:58.747Z,4.97
2017-10-02T14:57:26.338Z,4.97
2017-10-02T14:59:54.692Z,5.13
2017-10-02T15:02:22.350Z,4.87
2017-10-02T15:04:49.935Z,5.27
2017-10-02T15:07:17.506Z,5.63
2017-10-02T15:09:45.885Z,5.50
2017-10-02T15:12:14.304Z,5.43
2017-10-02T15:14:41.963Z,4.77
2017-10-02T15:17:09.531Z,4.40
2017-10-02T15:19:37.150Z,4.60
2017-10-02T15:22:04.685Z,5.17
2017-10-02T15:24:32.258Z,4.35
2017-10-02T15:26:59.835Z,4.90
2017-10-02T15:29:28.227Z,5.37
2017-10-02T15:31:56.582Z,5.00
2017-10-02T15:34:24.165Z,5.20
2017-10-02T15:36:52.518Z,4.67
2017-10-02T15:39:20.114Z,4.73
2017-10-02T15:41:47.696Z,3.83
2017-10-02T15:44:16.204Z,4.40
2017-10-02T15:46:43.794Z,4.50
2017-10-02T15:49:12.156Z,4.67
2017-10-02T15:51:39.735Z,4.13
2017-10-02T15:54:07.319Z,4.90
2017-10-02T15:56:35.644Z,3.70
2017-10-02T15:59:03.217Z,4.40
2017-10-02T16:01:30.854Z,4.83
2017-10-02T16:03:58.435Z,3.87
2017-10-02T16:06:26.055Z,4.90
2017-10-02T16:08:53.625Z,4.40
2017-10-02T16:11:21.197Z,4.40
2017-10-02T16:13:48.790Z,4.60
2017-10-02T16:16:16.387Z,5.90
2017-10-02T16:18:44.525Z,4.53
2017-10-02T16:21:12.451Z,5.10
2017-10-02T16:23:40.044Z,4.87
2017-10-02T16:26:07.854Z,5.77
2017-10-02T16:28:36.216Z,4.63
2017-10-02T16:31:03.798Z,4.43
2017-10-02T16:33:32.126Z,6.07
2017-10-02T16:35:59.873Z,5.10
2017-10-02T16:38:27.519Z,4.10
2017-10-02T16:40:55.115Z,5.23
2017-10-02T16:43:22.706Z,4.70
2017-10-02T16:45:50.302Z,5.73
2017-10-02T16:48:17.903Z,5.27
2017-10-02T16:50:45.569Z,6.03
2017-10-02T16:53:13.175Z,5.23
2017-10-02T16:55:40.757Z,4.63
2017-10-02T16:58:08.347Z,5.37
2017-10-02T17:00:35.942Z,4.87
2017-10-02T17:03:04.300Z,5.43
2017-10-02T17:05:32.227Z,5.70
2017-10-02T17:07:59.807Z,5.77
2017-10-02T17:10:27.655Z,5.47
2017-10-02T17:12:55.246Z,4.90
2017-10-02T17:15:22.818Z,5.13
2017-10-02T17:17:50.421Z,5.67
2017-10-02T17:20:18.754Z,6.20
2017-10-02T17:22:46.351Z,4.87
2017-10-02T17:25:14.693Z,5.40
2017-10-02T17:27:42.305Z,5.63
2017-10-02T17:30:09.898Z,4.70
2017-10-02T17:32:37.479Z,4.87
2017-10-02T17:35:05.184Z,5.20
2017-10-02T17:37:33.519Z,4.27
2017-10-02T17:40:01.119Z,4.73
2017-10-02T17:42:29.478Z,5.30
2017-10-02T17:44:57.125Z,5.93
2017-10-02T17:47:24.734Z,5.20
2017-10-02T17:49:52.349Z,6.17
2017-10-02T17:52:19.924Z,4.73
2017-10-02T17:54:47.513Z,5.43
2017-10-02T17:57:15.871Z,5.27
2017-10-02T17:59:43.465Z,6.90
2017-10-02T18:02:11.047Z,6.03
2017-10-02T18:04:38.752Z,6.40
2017-10-02T18:07:06.367Z,5.30
2017-10-02T18:09:33.943Z,5.60
2017-10-02T18:12:01.557Z,5.60
2017-10-02T18:14:29.911Z,5.60
2017-10-02T18:16:57.547Z,5.73
2017-10-02T18:19:25.154Z,5.53
2017-10-02T18:21:53.506Z,5.40
2017-10-02T18:24:21.138Z,5.33
2017-10-02T18:26:48.726Z,5.50
2017-10-02T18:29:16.336Z,6.07
2017-10-02T18:31:43.903Z,6.20
2017-10-02T18:34:11.501Z,5.70
2017-10-02T18:36:39.084Z,7.17
2017-10-02T18:39:06.667Z,6.67
2017-10-02T18:41:35.032Z,6.53
2017-10-02T18:44:02.649Z,7.00
2017-10-02T18:46:30.252Z,5.83
2017-10-02T18:48:57.870Z,6.40
2017-10-02T18:51:25.445Z,7.53
2017-10-02T18:53:53.058Z,6.97
2017-10-02T18:56:20.683Z,6.40
2017-10-02T18:58:48.293Z,7.50
2017-10-02T19:01:16.253Z,6.77
2017-10-02T19:03:44.597Z,6.60
2017-10-02T19:06:12.225Z,7.20
2017-10-02T19:08:39.810Z,8.20
2017-10-02T19:11:07.398Z,6.70
2017-10-02T19:13:34.976Z,7.20
2017-10-02T19:16:02.590Z,6.83
2017-10-02T19:18:30.186Z,7.47
2017-10-02T19:20:58.566Z,6.97
2017-10-02T19:23:26.957Z,8.67
2017-10-02T19:25:55.344Z,7.40
2017-10-02T19:28:22.941Z,7.23
2017-10-02T19:30:50.797Z,7.17
2017-10-02T19:33:18.670Z,6.40
2017-10-02T19:35:46.282Z,7.23
2017-10-02T19:38:14.658Z,9.70
2017-10-02T19:40:43.063Z,8.10
2017-10-02T19:43:10.651Z,8.20
2017-10-02T19:45:38.249Z,7.53
2017-10-02T19:48:05.852Z,7.90
2017-10-02T19:50:33.427Z,7.47
2017-10-02T19:53:01.025Z,8.60
2017-10-02T19:55:28.652Z,9.17
2017-10-02T19:57:56.411Z,8.60
2017-10-02T20:00:24.851Z,7.60
2017-10-02T20:02:52.424Z,6.80
2017-10-02T20:05:20.891Z,6.97
2017-10-02T20:07:48.455Z,8.30
2017-10-02T20:10:16.072Z,7.60
2017-10-02T20:12:43.667Z,9.17
2017-10-02T20:15:11.650Z,8.90
2017-10-02T20:17:39.245Z,8.80
2017-10-02T20:20:06.854Z,8.97
2017-10-02T20:22:34.460Z,8.30
2017-10-02T20:25:02.054Z,8.67
2017-10-02T20:27:29.646Z,7.70
2017-10-02T20:29:57.579Z,6.90
2017-10-02T20:32:25.159Z,8.23
2017-10-02T20:34:52.830Z,8.70
2017-10-02T20:37:20.417Z,8.07
2017-10-02T20:39:48.757Z,7.57
2017-10-02T20:42:16.374Z,7.93
2017-10-02T20:44:43.972Z,7.60
2017-10-02T20:47:11.572Z,9.27
2017-10-02T20:49:39.199Z,7.43
2017-10-02T20:52:06.810Z,7.73
2017-10-02T20:54:34.435Z,7.53
2017-10-02T20:57:02.042Z,9.43
2017-10-02T20:59:30.431Z,9.13
2017-10-02T21:01:58.029Z,7.33
2017-10-02T21:04:25.609Z,8.20
2017-10-02T21:06:53.553Z,7.63
2017-10-02T21:09:21.177Z,8.10
2017-10-02T21:11:49.519Z,7.53
2017-10-02T21:14:17.136Z,7.83
2017-10-02T21:16:45.506Z,6.30
2017-10-02T21:19:13.104Z,6.53
2017-10-02T21:21:40.695Z,6.10
2017-10-02T21:24:08.318Z,7.03
2017-10-02T21:26:35.882Z,7.37
2017-10-02T21:29:03.457Z,6.40
2017-10-02T21:31:31.065Z,6.00
2017-10-02T21:33:58.660Z,6.43
2017-10-02T21:36:26.258Z,6.00
2017-10-02T21:38:54.010Z,5.60
2017-10-02T21:41:21.565Z,6.33
2017-10-02T21:43:49.201Z,6.07
2017-10-02T21:46:16.804Z,5.47
2017-10-02T21:48:44.426Z,5.13
2017-10-02T21:51:12.001Z,5.87
2017-10-02T21:53:39.874Z,5.27
2017-10-02T21:56:07.473Z,5.60
2017-10-02T21:58:35.021Z,6.30
2017-10-02T22:01:02.623Z,5.80
2017-10-02T22:03:30.197Z,6.00
2017-10-02T22:05:57.782Z,6.13
2017-10-02T22:08:25.374Z,6.47
2017-10-02T22:10:52.930Z,7.10
2017-10-02T22:13:20.517Z,6.10
2017-10-02T22:15:48.853Z,6.07
2017-10-02T22:18:16.446Z,6.10
2017-10-02T22:20:44.774Z,6.00
2017-10-02T22:23:12.373Z,6.67
2017-10-02T22:25:40.737Z,6.80
2017-10-02T22:28:08.326Z,5.70
2017-10-02T22:30:36.691Z,6.17
2017-10-02T22:33:04.277Z,7.27
2017-10-02T22:35:32.695Z,5.20
2017-10-02T22:38:00.293Z,5.13
2017-10-02T22:40:27.862Z,5.50
2017-10-02T22:42:56.239Z,6.70
2017-10-02T22:45:24.593Z,5.27
2017-10-02T22:47:52.194Z,6.90
2017-10-02T22:50:20.558Z,5.80
2017-10-02T22:52:48.927Z,6.00
2017-10-02T22:55:16.534Z,7.10
2017-10-02T22:57:44.303Z,7.00
2017-10-02T23:00:11.886Z,6.53
2017-10-02T23:02:39.470Z,5.00
2017-10-02T23:05:07.037Z,5.53
2017-10-02T23:07:34.656Z,5.83
2017-10-02T23:10:02.217Z,5.60
2017-10-02T23:12:29.814Z,6.80
2017-10-02T23:14:57.706Z,5.80
2017-10-02T23:17:26.064Z,5.73
2017-10-02T23:19:53.630Z,6.63
2017-10-02T23:22:21.330Z,6.17
2017-10-02T23:24:49.775Z,6.27
2017-10-02T23:27:17.347Z,6.40
2017-10-02T23:29:45.685Z,6.33
2017-10-02T23:32:13.348Z,5.90
2017-10-02T23:34:40.934Z,5.50
2017-10-02T23:37:08.849Z,6.90
2017-10-02T23:39:36.443Z,6.20
2017-10-02T23:42:04.017Z,6.37
2017-10-02T23:44:31.714Z,6.30
2017-10-02T23:47:00.070Z,5.50
2017-10-02T23:49:27.643Z,6.33
2017-10-02T23:51:56.732Z,7.60
2017-10-02T23:54:24.315Z,6.70
2017-10-02T23:56:52.655Z,5.97
2017-10-02T23:59:20.669Z,6.43
